createdAt,value
2024-05-09T00:01:38.222Z,97751.44
2024-05-09T00:04:08.854Z,97750.00
2024-05-09T00:06:39.183Z,97757.31
2024-05-09T00:09:12.121Z,97757.81
2024-05-09T00:11:42.498Z,97747.03
2024-05-09T00:14:12.810Z,97750.97
2024-05-09T00:16:43.176Z,97751.59
2024-05-09T00:19:13.511Z,97755.22
2024-05-09T00:21:45.803Z,97749.75
2024-05-09T00:24:18.763Z,97748.06
2024-05-09T00:26:49.150Z,97751.91
2024-05-09T00:29:19.327Z,97750.38
2024-05-09T00:31:49.800Z,97752.34
2024-05-09T00:34:20.162Z,97742.22
2024-05-09T00:36:50.709Z,97744.44
2024-05-09T00:39:23.552Z,97730.69
2024-05-09T00:41:53.728Z,97736.53
2024-05-09T00:44:24.080Z,97731.06
2024-05-09T00:46:56.308Z,97731.41
2024-05-09T00:49:28.468Z,97725.41
2024-05-09T00:52:01.495Z,97727.59
2024-05-09T00:54:34.566Z,97724.66
2024-05-09T00:57:07.353Z,97718.59
2024-05-09T00:59:38.588Z,97718.69
2024-05-09T01:02:10.078Z,97725.34
2024-05-09T01:04:40.495Z,97725.16
2024-05-09T01:07:11.715Z,97722.84
2024-05-09T01:09:44.665Z,97719.00
2024-05-09T01:12:15.098Z,97722.53
2024-05-09T01:14:45.712Z,97716.03
2024-05-09T01:17:17.058Z,97720.41
2024-05-09T01:19:47.687Z,97716.47
2024-05-09T01:22:18.335Z,97717.09
2024-05-09T01:24:52.135Z,97710.94
2024-05-09T01:27:22.391Z,97715.09
2024-05-09T01:29:52.672Z,97721.94
2024-05-09T01:32:23.047Z,97714.31
2024-05-09T01:34:53.402Z,97720.22
2024-05-09T01:37:23.735Z,97714.78
2024-05-09T01:39:56.598Z,97727.78
2024-05-09T01:42:26.854Z,97731.84
2024-05-09T01:44:57.052Z,97725.97
2024-05-09T01:47:27.384Z,97728.19
2024-05-09T01:49:57.710Z,97718.91
2024-05-09T01:52:27.939Z,97726.69
2024-05-09T01:55:04.660Z,97728.09
2024-05-09T01:57:36.764Z,97726.97
2024-05-09T02:00:10.416Z,97731.84
2024-05-09T02:02:42.160Z,97730.22
2024-05-09T02:05:12.592Z,97731.97
2024-05-09T02:07:42.989Z,97726.38
2024-05-09T02:10:20.487Z,97737.63
2024-05-09T02:12:56.466Z,97731.84
2024-05-09T02:15:26.833Z,97725.34
2024-05-09T02:17:57.411Z,97732.31
2024-05-09T02:20:34.043Z,97727.34
2024-05-09T02:23:07.684Z,97734.63
2024-05-09T02:25:40.814Z,97730.09
2024-05-09T02:28:11.465Z,97723.28
2024-05-09T02:30:42.616Z,97731.00
2024-05-09T02:33:14.486Z,97726.97
2024-05-09T02:35:45.526Z,97723.72
2024-05-09T02:38:13.678Z,97722.91
2024-05-09T02:40:46.711Z,97728.88
2024-05-09T02:43:14.353Z,97730.00
2024-05-09T02:45:45.287Z,97733.84
2024-05-09T02:48:14.052Z,97725.84
2024-05-09T02:50:45.156Z,97725.28
2024-05-09T02:53:14.271Z,97728.00
2024-05-09T02:55:47.621Z,97728.00
2024-05-09T02:58:15.349Z,97725.03
2024-05-09T03:00:45.651Z,97726.69
2024-05-09T03:03:15.314Z,97714.72
2024-05-09T03:05:46.999Z,97715.53
2024-05-09T03:08:14.979Z,97718.78
2024-05-09T03:10:48.049Z,97718.47
2024-05-09T03:13:16.381Z,97729.72
2024-05-09T03:15:47.023Z,97723.16
2024-05-09T03:18:15.732Z,97723.22
2024-05-09T03:20:46.500Z,97721.63
2024-05-09T03:23:14.218Z,97735.41
2024-05-09T03:25:47.231Z,97737.31
2024-05-09T03:28:14.987Z,97732.25
2024-05-09T03:30:45.164Z,97730.06
2024-05-09T03:33:15.656Z,97724.59
2024-05-09T03:35:47.162Z,97726.47
2024-05-09T03:38:18.012Z,97731.34
2024-05-09T03:40:52.502Z,97732.16
2024-05-09T03:43:23.664Z,97729.63
2024-05-09T03:45:54.039Z,97732.56
2024-05-09T03:48:21.793Z,97735.59
2024-05-09T03:50:52.295Z,97729.81
2024-05-09T03:53:21.165Z,97727.91
2024-05-09T03:55:56.977Z,97732.56
2024-05-09T03:58:24.936Z,97738.03
2024-05-09T04:00:55.197Z,97728.31
2024-05-09T04:03:23.203Z,97740.16
2024-05-09T04:05:53.617Z,97736.91
2024-05-09T04:08:21.454Z,97741.75
2024-05-09T04:10:54.450Z,97735.78
2024-05-09T04:13:22.086Z,97740.28
2024-05-09T04:15:52.356Z,97748.66
2024-05-09T04:18:20.227Z,97750.56
2024-05-09T04:20:50.646Z,97759.91
2024-05-09T04:23:18.260Z,97762.84
2024-05-09T04:25:48.674Z,97762.22
2024-05-09T04:28:19.651Z,97767.28
2024-05-09T04:30:50.124Z,97768.59
2024-05-09T04:33:21.240Z,97759.69
2024-05-09T04:35:49.629Z,97767.47
2024-05-09T04:38:19.927Z,97761.88
2024-05-09T04:40:47.725Z,97766.94
2024-05-09T04:43:21.522Z,97760.13
2024-05-09T04:45:49.172Z,97758.53
2024-05-09T04:48:19.779Z,97760.59
2024-05-09T04:50:47.676Z,97768.78
2024-05-09T04:53:19.708Z,97768.09
2024-05-09T04:55:47.635Z,97764.88
2024-05-09T04:58:20.603Z,97766.97
2024-05-09T05:00:48.266Z,97769.41
2024-05-09T05:03:18.716Z,97771.66
2024-05-09T05:05:46.934Z,97761.59
2024-05-09T05:08:19.487Z,97765.53
2024-05-09T05:10:48.927Z,97766.03
2024-05-09T05:13:23.969Z,97764.56
2024-05-09T05:15:57.765Z,97764.22
2024-05-09T05:18:27.643Z,97770.91
2024-05-09T05:20:59.780Z,97775.53
2024-05-09T05:23:27.622Z,97763.72
2024-05-09T05:25:58.235Z,97769.22
2024-05-09T05:28:28.574Z,97773.00
2024-05-09T05:30:58.899Z,97775.41
2024-05-09T05:33:27.050Z,97776.50
2024-05-09T05:35:57.774Z,97773.72
2024-05-09T05:38:28.124Z,97779.38
2024-05-09T05:40:59.020Z,97771.34
2024-05-09T05:43:29.729Z,97776.91
2024-05-09T05:46:00.001Z,97776.28
2024-05-09T05:48:28.061Z,97781.50
2024-05-09T05:51:00.409Z,97782.69
2024-05-09T05:53:29.551Z,97771.31
2024-05-09T05:55:59.948Z,97784.06
2024-05-09T05:58:30.678Z,97779.88
2024-05-09T06:01:00.931Z,97780.16
2024-05-09T06:03:29.542Z,97783.44
2024-05-09T06:06:00.081Z,97784.22
2024-05-09T06:08:30.292Z,97788.09
2024-05-09T06:11:01.059Z,97785.47
2024-05-09T06:13:31.351Z,97777.75
2024-05-09T06:16:04.935Z,97781.81
2024-05-09T06:18:32.710Z,97782.34
2024-05-09T06:21:03.354Z,97787.47
2024-05-09T06:23:31.042Z,97787.97
2024-05-09T06:26:01.454Z,97785.38
2024-05-09T06:28:31.683Z,97787.84
2024-05-09T06:31:04.352Z,97787.56
2024-05-09T06:33:32.404Z,97788.03
2024-05-09T06:36:02.964Z,97798.19
2024-05-09T06:38:30.715Z,97791.31
2024-05-09T06:41:01.253Z,97790.25
2024-05-09T06:43:31.609Z,97787.81
2024-05-09T06:46:01.906Z,97789.59
2024-05-09T06:48:29.746Z,97791.25
2024-05-09T06:51:00.975Z,97784.06
2024-05-09T06:53:29.056Z,97793.47
2024-05-09T06:55:59.484Z,97790.06
2024-05-09T06:58:27.271Z,97783.47
2024-05-09T07:01:00.310Z,97790.63
2024-05-09T07:03:28.008Z,97796.22
2024-05-09T07:05:58.394Z,97785.41
2024-05-09T07:08:26.065Z,97790.34
2024-05-09T07:10:56.782Z,97792.88
2024-05-09T07:13:24.438Z,97794.97
2024-05-09T07:15:54.748Z,97800.38
2024-05-09T07:18:25.145Z,97785.31
2024-05-09T07:20:55.520Z,97793.72
2024-05-09T07:23:23.155Z,97789.47
2024-05-09T07:25:53.642Z,97791.09
2024-05-09T07:28:21.725Z,97785.41
2024-05-09T07:30:52.007Z,97787.78
2024-05-09T07:33:24.549Z,97786.78
2024-05-09T07:35:55.465Z,97787.75
2024-05-09T07:38:23.356Z,97783.66
2024-05-09T07:40:53.693Z,97780.19
2024-05-09T07:43:21.520Z,97781.34
2024-05-09T07:45:54.414Z,97779.31
2024-05-09T07:50:00.288Z,97778.09
2024-05-09T07:53:52.113Z,97772.22
2024-05-09T07:56:26.056Z,97771.56
2024-05-09T07:58:54.439Z,97772.25
2024-05-09T08:01:26.506Z,97769.00
2024-05-09T08:03:57.806Z,97762.59
2024-05-09T08:06:28.939Z,97768.13
2024-05-09T08:08:57.850Z,97763.03
2024-05-09T08:11:30.100Z,97764.41
2024-05-09T08:13:57.657Z,97770.19
2024-05-09T08:16:28.807Z,97767.00
2024-05-09T08:18:59.237Z,97774.22
2024-05-09T08:21:29.833Z,97769.19
2024-05-09T08:23:57.618Z,97769.91
2024-05-09T08:26:27.890Z,97773.78
2024-05-09T08:28:55.462Z,97769.69
2024-05-09T08:31:25.827Z,97777.53
2024-05-09T08:33:54.702Z,97768.03
2024-05-09T08:36:27.721Z,97770.78
2024-05-09T08:38:57.138Z,97767.66
2024-05-09T08:41:28.673Z,97769.06
2024-05-09T08:43:56.366Z,97768.31
2024-05-09T08:46:30.388Z,97770.00
2024-05-09T08:49:00.867Z,97771.31
2024-05-09T08:51:33.979Z,97769.28
2024-05-09T08:54:01.632Z,97770.91
2024-05-09T08:56:36.667Z,97775.53
2024-05-09T08:59:13.572Z,97770.41
2024-05-09T09:01:44.769Z,97776.00
2024-05-09T09:04:15.885Z,97772.69
2024-05-09T09:06:49.549Z,97762.47
2024-05-09T09:09:17.498Z,97767.09
2024-05-09T09:11:47.651Z,97767.19
2024-05-09T09:14:15.240Z,97765.59
2024-05-09T09:16:46.066Z,97765.34
2024-05-09T09:19:14.781Z,97764.84
2024-05-09T09:21:48.500Z,97760.78
2024-05-09T09:24:16.204Z,97770.28
2024-05-09T09:26:48.795Z,97758.53
2024-05-09T09:29:20.713Z,97773.03
2024-05-09T09:32:01.525Z,97761.94
2024-05-09T09:34:30.391Z,97766.22
2024-05-09T09:37:08.335Z,97767.94
2024-05-09T09:39:38.583Z,97765.88
2024-05-09T09:42:09.421Z,97760.34
2024-05-09T09:44:42.112Z,97767.00
2024-05-09T09:47:15.330Z,97761.34
2024-05-09T09:49:45.582Z,97765.66
2024-05-09T09:52:19.246Z,97762.59
2024-05-09T09:54:48.780Z,97769.19
2024-05-09T09:57:22.819Z,97764.84
2024-05-09T09:59:52.636Z,97760.53
2024-05-09T10:02:23.147Z,97764.13
2024-05-09T10:04:51.719Z,97763.47
2024-05-09T10:07:27.662Z,97767.16
2024-05-09T10:09:56.511Z,97765.94
2024-05-09T10:12:27.338Z,97754.78
2024-05-09T10:14:55.279Z,97758.63
2024-05-09T10:17:25.727Z,97759.69
2024-05-09T10:20:14.373Z,97748.50
2024-05-09T10:22:53.813Z,97746.16
2024-05-09T10:25:21.791Z,97752.09
2024-05-09T10:27:58.449Z,97760.75
2024-05-09T10:30:34.078Z,97754.44
2024-05-09T10:33:06.620Z,97749.50
2024-05-09T10:35:34.163Z,97749.56
2024-05-09T10:38:10.979Z,97745.56
2024-05-09T10:40:40.138Z,97737.59
2024-05-09T10:43:11.937Z,97742.25
2024-05-09T10:45:39.686Z,97731.84
2024-05-09T10:48:12.034Z,97722.66
2024-05-09T10:50:43.844Z,97733.34
2024-05-09T10:53:17.372Z,97724.56
2024-05-09T10:55:56.530Z,97724.22
2024-05-09T10:58:26.919Z,97720.88
2024-05-09T11:00:55.780Z,97725.34
2024-05-09T11:03:27.413Z,97721.63
2024-05-09T11:05:56.306Z,97715.72
2024-05-09T11:08:30.448Z,97714.72
2024-05-09T11:10:59.684Z,97705.78
2024-05-09T11:13:31.143Z,97703.75
2024-05-09T11:16:00.056Z,97711.09
2024-05-09T11:18:36.690Z,97688.91
2024-05-09T11:21:13.997Z,97713.97
2024-05-09T11:23:47.117Z,97708.81
2024-05-09T11:26:19.330Z,97704.94
2024-05-09T11:28:50.888Z,97705.38
2024-05-09T11:31:19.166Z,97707.81
2024-05-09T11:33:49.713Z,97703.72
2024-05-09T11:36:17.564Z,97696.94
2024-05-09T11:38:50.478Z,97700.53
2024-05-09T11:41:19.115Z,97700.13
2024-05-09T11:43:49.446Z,97699.44
2024-05-09T11:46:17.242Z,97703.84
2024-05-09T11:48:48.284Z,97699.66
2024-05-09T11:51:15.989Z,97692.19
2024-05-09T11:53:46.148Z,97696.31
2024-05-09T11:56:17.585Z,97701.94
2024-05-09T11:58:47.879Z,97701.63
2024-05-09T12:01:15.472Z,97695.03
2024-05-09T12:03:49.390Z,97697.97
2024-05-09T12:06:17.663Z,97683.44
2024-05-09T12:08:47.863Z,97680.94
2024-05-09T12:11:18.056Z,97670.50
2024-05-09T12:13:48.366Z,97677.22
2024-05-09T12:16:16.399Z,97689.41
2024-05-09T12:18:46.942Z,97683.41
2024-05-09T12:21:17.490Z,97678.13
2024-05-09T12:23:47.767Z,97683.22
2024-05-09T12:26:18.082Z,97673.69
2024-05-09T12:28:48.435Z,97668.22
2024-05-09T12:31:15.966Z,97670.94
2024-05-09T12:33:46.703Z,97673.59
2024-05-09T12:36:14.367Z,97675.09
2024-05-09T12:38:44.583Z,97668.97
2024-05-09T12:41:12.196Z,97664.88
2024-05-09T12:43:45.120Z,97668.16
2024-05-09T12:46:12.997Z,97670.75
2024-05-09T12:48:43.501Z,97662.31
2024-05-09T12:51:11.263Z,97661.28
2024-05-09T12:53:41.659Z,97652.53
2024-05-09T12:56:09.714Z,97647.25
2024-05-09T12:58:40.628Z,97646.84
2024-05-09T13:01:11.017Z,97652.03
2024-05-09T13:03:41.300Z,97644.59
2024-05-09T13:06:09.169Z,97638.91
2024-05-09T13:08:39.820Z,97647.91
2024-05-09T13:11:08.352Z,97643.78
2024-05-09T13:13:38.681Z,97638.03
2024-05-09T13:16:09.775Z,97636.34
2024-05-09T13:18:40.581Z,97640.09
2024-05-09T13:21:08.317Z,97628.09
2024-05-09T13:23:38.646Z,97621.16
2024-05-09T13:26:06.258Z,97628.31
2024-05-09T13:28:36.769Z,97628.16
2024-05-09T13:31:04.615Z,97626.94
2024-05-09T13:33:37.928Z,97623.69
2024-05-09T13:36:07.252Z,97614.78
2024-05-09T13:38:37.470Z,97612.06
2024-05-09T13:41:05.365Z,97607.69
2024-05-09T13:43:35.629Z,97610.94
2024-05-09T13:46:03.915Z,97603.22
2024-05-09T13:48:37.373Z,97602.81
2024-05-09T13:51:05.877Z,97604.94
2024-05-09T13:53:36.331Z,97593.50
2024-05-09T13:56:04.460Z,97598.44
2024-05-09T13:58:34.858Z,97592.38
2024-05-09T14:01:02.513Z,97600.13
2024-05-09T14:03:33.095Z,97594.75
2024-05-09T14:06:03.847Z,97585.41
2024-05-09T14:08:34.634Z,97602.41
2024-05-09T14:11:02.516Z,97597.38
2024-05-09T14:13:32.934Z,97600.03
2024-05-09T14:16:00.828Z,97590.72
2024-05-09T14:18:31.874Z,97586.03
2024-05-09T14:20:59.620Z,97586.28
2024-05-09T14:23:32.748Z,97578.38
2024-05-09T14:26:00.349Z,97578.47
2024-05-09T14:28:31.146Z,97583.06
2024-05-09T14:31:00.488Z,97583.44
2024-05-09T14:33:31.677Z,97574.75
2024-05-09T14:35:59.554Z,97570.72
2024-05-09T14:38:33.089Z,97574.84
2024-05-09T14:41:00.799Z,97564.06
2024-05-09T14:43:31.714Z,97556.81
2024-05-09T14:45:59.516Z,97560.59
2024-05-09T14:48:31.042Z,97560.66
2024-05-09T14:51:14.172Z,97559.09
2024-05-09T14:53:47.139Z,97555.22
2024-05-09T14:56:14.954Z,97553.69
2024-05-09T14:58:45.342Z,97552.91
2024-05-09T15:01:13.002Z,97554.06
2024-05-09T15:03:43.350Z,97547.59
2024-05-09T15:06:11.074Z,97552.16
2024-05-09T15:08:42.143Z,97548.00
2024-05-09T15:11:12.531Z,97541.59
2024-05-09T15:13:42.897Z,97537.69
2024-05-09T15:16:10.678Z,97538.47
2024-05-09T15:18:44.152Z,97536.84
2024-05-09T15:21:11.974Z,97534.88
2024-05-09T15:23:42.641Z,97532.03
2024-05-09T15:26:12.928Z,97536.56
2024-05-09T15:28:44.146Z,97537.88
2024-05-09T15:31:11.795Z,97535.63
2024-05-09T15:33:42.766Z,97531.34
2024-05-09T15:36:10.917Z,97519.84
2024-05-09T15:38:41.942Z,97532.69
2024-05-09T15:41:13.517Z,97526.63
2024-05-09T15:43:43.680Z,97524.78
2024-05-09T15:46:12.160Z,97525.94
2024-05-09T15:48:44.823Z,97522.44
2024-05-09T15:51:12.775Z,97520.22
2024-05-09T15:53:42.916Z,97520.50
2024-05-09T15:56:13.432Z,97517.38
2024-05-09T15:58:43.797Z,97515.41
2024-05-09T16:01:12.676Z,97519.78
2024-05-09T16:03:43.186Z,97521.31
2024-05-09T16:06:11.012Z,97513.53
2024-05-09T16:08:41.673Z,97520.41
2024-05-09T16:11:13.302Z,97521.47
2024-05-09T16:13:43.575Z,97508.50
2024-05-09T16:16:11.563Z,97507.44
2024-05-09T16:18:41.894Z,97517.78
2024-05-09T16:21:09.740Z,97508.97
2024-05-09T16:23:40.942Z,97512.34
2024-05-09T16:26:08.500Z,97508.31
2024-05-09T16:28:41.426Z,97501.63
2024-05-09T16:31:08.986Z,97509.72
2024-05-09T16:33:40.472Z,97508.59
2024-05-09T16:36:08.568Z,97509.47
2024-05-09T16:38:40.060Z,97507.34
2024-05-09T16:41:08.745Z,97507.72
2024-05-09T16:43:42.030Z,97501.44
2024-05-09T16:46:10.014Z,97506.69
2024-05-09T16:48:40.905Z,97498.81
2024-05-09T16:51:08.917Z,97506.16
2024-05-09T16:53:39.183Z,97494.59
2024-05-09T16:56:07.828Z,97501.44
2024-05-09T16:58:40.945Z,97493.63
2024-05-09T17:01:08.798Z,97494.00
2024-05-09T17:03:39.256Z,97486.84
2024-05-09T17:06:07.408Z,97486.94
2024-05-09T17:08:37.908Z,97488.84
2024-05-09T17:11:05.773Z,97484.50
2024-05-09T17:13:39.333Z,97485.97
2024-05-09T17:16:13.664Z,97486.63
2024-05-09T17:18:44.200Z,97486.00
2024-05-09T17:21:11.796Z,97494.66
2024-05-09T17:23:42.551Z,97487.59
2024-05-09T17:26:10.603Z,97490.63
2024-05-09T17:28:41.012Z,97489.72
2024-05-09T17:31:11.450Z,97493.41
2024-05-09T17:33:42.872Z,97486.97
2024-05-09T17:36:13.319Z,97486.72
2024-05-09T17:38:41.073Z,97488.25
2024-05-09T17:41:11.380Z,97486.22
2024-05-09T17:43:39.001Z,97493.59
2024-05-09T17:46:09.902Z,97501.63
2024-05-09T17:48:40.385Z,97500.81
2024-05-09T17:51:10.640Z,97494.44
2024-05-09T17:53:40.130Z,97499.69
2024-05-09T17:56:11.221Z,97501.44
2024-05-09T17:58:38.930Z,97501.06
2024-05-09T18:01:09.304Z,97503.38
2024-05-09T18:03:40.061Z,97497.44
2024-05-09T18:06:11.315Z,97495.06
2024-05-09T18:08:38.868Z,97499.09
2024-05-09T18:11:09.706Z,97492.03
2024-05-09T18:13:37.651Z,97485.91
2024-05-09T18:16:08.954Z,97493.53
2024-05-09T18:18:39.524Z,97487.31
2024-05-09T18:21:10.062Z,97493.13
2024-05-09T18:23:37.633Z,97500.38
2024-05-09T18:26:08.697Z,97499.09
2024-05-09T18:28:36.379Z,97500.13
2024-05-09T18:31:06.828Z,97506.66
2024-05-09T18:33:34.702Z,97507.41
2024-05-09T18:36:08.046Z,97507.13
2024-05-09T18:38:36.076Z,97508.78
2024-05-09T18:41:07.847Z,97512.69
2024-05-09T18:43:42.184Z,97511.25
2024-05-09T18:46:15.948Z,97511.63
2024-05-09T18:48:43.882Z,97510.38
2024-05-09T18:51:17.101Z,97513.81
2024-05-09T18:53:45.209Z,97514.91
2024-05-09T18:56:15.526Z,97516.38
2024-05-09T18:58:43.502Z,97524.63
2024-05-09T19:01:14.594Z,97524.94
2024-05-09T19:03:43.018Z,97531.09
2024-05-09T19:06:17.313Z,97533.66
2024-05-09T19:08:45.863Z,97532.72
2024-05-09T19:11:16.242Z,97538.47
2024-05-09T19:13:44.179Z,97541.22
2024-05-09T19:16:14.650Z,97542.50
2024-05-09T19:18:42.653Z,97540.56
2024-05-09T19:21:14.367Z,97547.03
2024-05-09T19:23:50.811Z,97549.97
2024-05-09T19:26:25.279Z,97555.91
2024-05-09T19:28:53.492Z,97557.38
2024-05-09T19:31:24.166Z,97557.34
2024-05-09T19:33:52.068Z,97557.03
2024-05-09T19:36:22.559Z,97556.72
2024-05-09T19:38:53.219Z,97560.19
2024-05-09T19:41:23.930Z,97558.88
2024-05-09T19:43:51.600Z,97560.03
2024-05-09T19:46:27.043Z,97553.72
2024-05-09T19:48:55.647Z,97559.09
2024-05-09T19:51:26.119Z,97559.41
2024-05-09T19:53:56.356Z,97558.25
2024-05-09T19:56:27.411Z,97563.09
2024-05-09T19:58:55.258Z,97563.31
2024-05-09T20:01:25.536Z,97564.47
2024-05-09T20:03:53.467Z,97560.09
2024-05-09T20:06:26.347Z,97568.88
2024-05-09T20:08:58.359Z,97563.78
2024-05-09T20:11:30.830Z,97563.72
2024-05-09T20:13:58.707Z,97569.91
2024-05-09T20:16:29.135Z,97567.94
2024-05-09T20:18:59.711Z,97571.94
2024-05-09T20:21:30.115Z,97565.63
2024-05-09T20:24:00.525Z,97563.25
2024-05-09T20:26:31.270Z,97568.13
2024-05-09T20:28:58.970Z,97569.00
2024-05-09T20:31:29.383Z,97565.25
2024-05-09T20:33:57.320Z,97573.72
2024-05-09T20:36:27.661Z,97564.16
2024-05-09T20:38:55.385Z,97570.66
2024-05-09T20:41:28.363Z,97562.38
2024-05-09T20:43:58.211Z,97572.50
2024-05-09T20:46:28.465Z,97566.38
2024-05-09T20:48:56.711Z,97566.84
2024-05-09T20:51:27.677Z,97568.91
2024-05-09T20:53:58.487Z,97566.25
2024-05-09T20:56:28.794Z,97568.09
2024-05-09T20:59:00.591Z,97568.66
2024-05-09T21:01:28.484Z,97565.34
2024-05-09T21:03:58.998Z,97565.47
2024-05-09T21:06:26.783Z,97560.19
2024-05-09T21:08:58.472Z,97561.41
2024-05-09T21:11:28.766Z,97564.53
2024-05-09T21:13:59.072Z,97559.66
2024-05-09T21:16:26.823Z,97558.03
2024-05-09T21:18:57.062Z,97561.28
2024-05-09T21:21:24.725Z,97559.81
2024-05-09T21:23:54.988Z,97555.41
2024-05-09T21:26:23.898Z,97546.50
2024-05-09T21:28:57.132Z,97557.91
2024-05-09T21:31:24.757Z,97560.41
2024-05-09T21:33:55.212Z,97552.63
2024-05-09T21:36:23.103Z,97548.75
2024-05-09T21:38:53.258Z,97560.91
2024-05-09T21:41:22.295Z,97553.72
2024-05-09T21:43:52.508Z,97553.00
2024-05-09T21:46:22.726Z,97551.13
2024-05-09T21:48:53.162Z,97558.22
2024-05-09T21:51:20.850Z,97558.06
2024-05-09T21:53:51.812Z,97552.91
2024-05-09T21:56:19.481Z,97551.69
2024-05-09T21:58:49.727Z,97555.72
2024-05-09T22:01:17.592Z,97552.56
2024-05-09T22:03:50.772Z,97549.44
2024-05-09T22:06:18.487Z,97543.38
2024-05-09T22:08:48.885Z,97538.22
2024-05-09T22:11:16.508Z,97533.91
2024-05-09T22:13:46.926Z,97532.91
2024-05-09T22:16:14.642Z,97539.47
2024-05-09T22:18:45.713Z,97540.97
2024-05-09T22:21:15.955Z,97534.94
2024-05-09T22:23:46.180Z,97548.63
2024-05-09T22:26:13.706Z,97542.56
2024-05-09T22:28:44.151Z,97536.91
2024-05-09T22:31:11.867Z,97545.34
2024-05-09T22:33:45.538Z,97533.94
2024-05-09T22:36:17.382Z,97533.66
2024-05-09T22:38:47.534Z,97535.91
2024-05-09T22:41:15.137Z,97528.44
2024-05-09T22:43:45.464Z,97541.78
2024-05-09T22:46:13.311Z,97547.53
2024-05-09T22:48:43.937Z,97546.31
2024-05-09T22:51:13.199Z,97547.31
2024-05-09T22:53:46.036Z,97544.25
2024-05-09T22:56:15.938Z,97549.81
2024-05-09T22:58:46.248Z,97552.44
2024-05-09T23:01:16.080Z,97554.16
2024-05-09T23:03:46.770Z,97548.97
2024-05-09T23:06:14.841Z,97551.44
2024-05-09T23:08:47.990Z,97542.81
2024-05-09T23:11:18.202Z,97547.34
2024-05-09T23:13:45.870Z,97543.00
2024-05-09T23:16:16.241Z,97541.06
2024-05-09T23:18:44.063Z,97540.50
2024-05-09T23:21:14.365Z,97539.41
2024-05-09T23:23:45.702Z,97542.50
2024-05-09T23:26:15.959Z,97533.28
2024-05-09T23:28:44.037Z,97531.97
2024-05-09T23:31:14.260Z,97533.63
2024-05-09T23:33:46.494Z,97539.88
2024-05-09T23:36:17.141Z,97534.34
2024-05-09T23:38:47.564Z,97532.28
2024-05-09T23:41:17.835Z,97532.66
2024-05-09T23:43:45.534Z,97531.34
2024-05-09T23:46:15.966Z,97524.88
2024-05-09T23:48:43.844Z,97530.53
2024-05-09T23:51:14.459Z,97526.47
2024-05-09T23:53:47.601Z,97521.88
2024-05-09T23:56:18.742Z,97519.72
2024-05-09T23:58:47.306Z,97518.97
